地図

経路データ

SID SEASON NUMBER BASIN SUBBASIN NAME ISO_TIME NATURE LAT LON WMO_WIND WMO_PRES WMO_AGENCY TRACK_TYPE DIST2LAND LANDFALL IFLAG USA_AGENCY USA_ATCF_ID USA_LAT USA_LON USA_RECORD USA_STATUS USA_WIND USA_PRES USA_SSHS USA_R34_NE USA_R34_SE USA_R34_SW USA_R34_NW USA_R50_NE USA_R50_SE USA_R50_SW USA_R50_NW USA_R64_NE USA_R64_SE USA_R64_SW USA_R64_NW USA_POCI USA_ROCI USA_RMW USA_EYE TOKYO_LAT TOKYO_LON TOKYO_GRADE TOKYO_WIND TOKYO_PRES TOKYO_R50_DIR TOKYO_R50_LONG TOKYO_R50_SHORT TOKYO_R30_DIR TOKYO_R30_LONG TOKYO_R30_SHORT TOKYO_LAND CMA_LAT CMA_LON CMA_CAT CMA_WIND CMA_PRES HKO_LAT HKO_LON HKO_CAT HKO_WIND HKO_PRES NEWDELHI_LAT NEWDELHI_LON NEWDELHI_GRADE NEWDELHI_WIND NEWDELHI_PRES NEWDELHI_CI NEWDELHI_DP NEWDELHI_POCI REUNION_LAT REUNION_LON REUNION_TYPE REUNION_WIND REUNION_PRES REUNION_TNUM REUNION_CI REUNION_RMW REUNION_R34_NE REUNION_R34_SE REUNION_R34_SW REUNION_R34_NW REUNION_R50_NE REUNION_R50_SE REUNION_R50_SW REUNION_R50_NW REUNION_R64_NE REUNION_R64_SE REUNION_R64_SW REUNION_R64_NW BOM_LAT BOM_LON BOM_TYPE BOM_WIND BOM_PRES BOM_TNUM BOM_CI BOM_RMW BOM_R34_NE BOM_R34_SE BOM_R34_SW BOM_R34_NW BOM_R50_NE BOM_R50_SE BOM_R50_SW BOM_R50_NW BOM_R64_NE BOM_R64_SE BOM_R64_SW BOM_R64_NW BOM_ROCI BOM_POCI BOM_EYE BOM_POS_METHOD BOM_PRES_METHOD NADI_LAT NADI_LON NADI_CAT NADI_WIND NADI_PRES WELLINGTON_LAT WELLINGTON_LON WELLINGTON_WIND WELLINGTON_PRES DS824_LAT DS824_LON DS824_STAGE DS824_WIND DS824_PRES TD9636_LAT TD9636_LON TD9636_STAGE TD9636_WIND TD9636_PRES TD9635_LAT TD9635_LON TD9635_WIND TD9635_PRES TD9635_ROCI NEUMANN_LAT NEUMANN_LON NEUMANN_CLASS NEUMANN_WIND NEUMANN_PRES MLC_LAT MLC_LON MLC_CLASS MLC_WIND MLC_PRES USA_GUST BOM_GUST BOM_GUST_PER REUNION_GUST REUNION_GUST_PER USA_SEAHGT USA_SEARAD_NE USA_SEARAD_SE USA_SEARAD_SW USA_SEARAD_NW STORM_SPEED STORM_DIR
1980249N18336 1980 72 NA NA EARL 1980-09-04 12:00:00 TS 17.7000 -24.0000 25 1008 hurdat_atl main 771 771 O_____________ hurdat_atl AL101980 17.7000 -24.0000 TD 25 1008 -1 13 250
1980249N18336 1980 72 NA NA EARL 1980-09-04 15:00:00 TS 17.4803 -24.6382 main 820 820 P_____________ AL101980 17.4803 -24.6382 TD 27 1007 -1 13 256
1980249N18336 1980 72 NA NA EARL 1980-09-04 18:00:00 TS 17.4000 -25.3000 30 1006 hurdat_atl main 886 886 O_____________ hurdat_atl AL101980 17.4000 -25.3000 TD 30 1006 -1 13 273
1980249N18336 1980 72 NA NA EARL 1980-09-04 21:00:00 TS 17.5474 -25.9995 main 960 960 P_____________ AL101980 17.5474 -25.9995 TD 32 1004 -1 14 287
1980249N18336 1980 72 NA NA EARL 1980-09-05 00:00:00 TS 17.8000 -26.7000 35 1003 hurdat_atl main 1041 1041 O_____________ hurdat_atl AL101980 17.8000 -26.7000 TS 35 1003 0 14 289
1980249N18336 1980 72 NA NA EARL 1980-09-05 03:00:00 TS 17.9846 -27.3429 main 1108 1108 P_____________ AL101980 17.9846 -27.3429 TS 37 1001 0 13 288
1980249N18336 1980 72 NA NA EARL 1980-09-05 06:00:00 TS 18.2000 -28.0000 40 1000 hurdat_atl main 1178 1178 O_____________ hurdat_atl AL101980 18.2000 -28.0000 TS 40 1000 0 14 291
1980249N18336 1980 72 NA NA EARL 1980-09-05 09:00:00 TS 18.4999 -28.7348 main 1241 1241 P_____________ AL101980 18.4999 -28.7348 TS 40 999 0 15 293
1980249N18336 1980 72 NA NA EARL 1980-09-05 12:00:00 TS 18.8000 -29.5000 40 999 hurdat_atl main 1316 1316 O_____________ hurdat_atl AL101980 18.8000 -29.5000 TS 40 999 0 16 289
1980249N18336 1980 72 NA NA EARL 1980-09-05 15:00:00 TS 19.0076 -30.2878 main 1394 1394 P_____________ AL101980 19.0076 -30.2878 TS 40 999 0 15 286
1980249N18336 1980 72 NA NA EARL 1980-09-05 18:00:00 TS 19.2000 -31.0000 40 999 hurdat_atl main 1462 1462 O_____________ hurdat_atl AL101980 19.2000 -31.0000 TS 40 999 0 12 291
1980249N18336 1980 72 NA NA EARL 1980-09-05 21:00:00 TS 19.4339 -31.4781 main 1511 1509 P_____________ AL101980 19.4339 -31.4781 TS 40 999 0 11 298
1980249N18336 1980 72 NA NA EARL 1980-09-06 00:00:00 TS 19.7000 -32.0000 40 999 hurdat_atl main 1558 1558 O_____________ hurdat_atl AL101980 19.7000 -32.0000 TS 40 999 0 14 293
1980249N18336 1980 72 NA NA EARL 1980-09-06 03:00:00 TS 19.9854 -32.8475 main 1637 1637 P_____________ AL101980 19.9854 -32.8475 TS 40 999 0 18 290
1980249N18336 1980 72 NA NA EARL 1980-09-06 06:00:00 TS 20.3000 -33.8000 40 999 hurdat_atl main 1738 1738 O_____________ hurdat_atl AL101980 20.3000 -33.8000 TS 40 999 0 19 291
1980249N18336 1980 72 NA NA EARL 1980-09-06 09:00:00 TS 20.6576 -34.7097 main 1828 1828 P_____________ AL101980 20.6576 -34.7097 TS 42 998 0 17 294
1980249N18336 1980 72 NA NA EARL 1980-09-06 12:00:00 TS 21.0000 -35.5000 45 998 hurdat_atl main 1910 1910 O_____________ hurdat_atl AL101980 21.0000 -35.5000 TS 45 998 0 14 296
1980249N18336 1980 72 NA NA EARL 1980-09-06 15:00:00 TS 21.2491 -36.0309 main 1960 1960 P_____________ AL101980 21.2491 -36.0309 TS 45 997 0 11 298
1980249N18336 1980 72 NA NA EARL 1980-09-06 18:00:00 TS 21.5000 -36.5000 45 997 hurdat_atl main 2011 2011 O_____________ hurdat_atl AL101980 21.5000 -36.5000 TS 45 997 0 12 298
1980249N18336 1980 72 NA NA EARL 1980-09-06 21:00:00 TS 21.8127 -37.1501 main 2083 2082 P_____________ AL101980 21.8127 -37.1501 TS 45 996 0 14 300
1980249N18336 1980 72 NA NA EARL 1980-09-07 00:00:00 TS 22.2000 -37.8000 45 996 hurdat_atl main 2142 2142 O_____________ hurdat_atl AL101980 22.2000 -37.8000 TS 45 996 0 14 306
1980249N18336 1980 72 NA NA EARL 1980-09-07 03:00:00 TS 22.6172 -38.3309 main 2192 2192 P_____________ AL101980 22.6172 -38.3309 TS 45 996 0 14 317
1980249N18336 1980 72 NA NA EARL 1980-09-07 06:00:00 TS 23.2000 -38.8000 45 996 hurdat_atl main 2242 2242 O_____________ hurdat_atl AL101980 23.2000 -38.8000 TS 45 996 0 17 328
1980249N18336 1980 72 NA NA EARL 1980-09-07 09:00:00 TS 24.0250 -39.2798 main 2289 2286 P_____________ AL101980 24.0250 -39.2798 TS 45 995 0 20 335
1980249N18336 1980 72 NA NA EARL 1980-09-07 12:00:00 TS 25.0000 -39.7000 45 995 hurdat_atl main 2299 2296 O_____________ hurdat_atl AL101980 25.0000 -39.7000 TS 45 995 0 21 342
1980249N18336 1980 72 NA NA EARL 1980-09-07 15:00:00 TS 25.9846 -40.0015 main 2303 2299 P_____________ AL101980 25.9846 -40.0015 TS 47 994 0 21 345
1980249N18336 1980 72 NA NA EARL 1980-09-07 18:00:00 TS 27.0000 -40.3000 50 993 hurdat_atl main 2313 2311 O_____________ hurdat_atl AL101980 27.0000 -40.3000 TS 50 993 0 22 343
1980249N18336 1980 72 NA NA EARL 1980-09-07 21:00:00 TS 28.0447 -40.6978 main 2336 2218 P_____________ AL101980 28.0447 -40.6978 TS 55 992 0 22 338
1980249N18336 1980 72 NA NA EARL 1980-09-08 00:00:00 TS 29.0000 -41.2000 60 992 hurdat_atl main 2218 2123 O_____________ hurdat_atl AL101980 29.0000 -41.2000 TS 60 992 0 20 329
1980249N18336 1980 72 NA NA EARL 1980-09-08 03:00:00 TS 29.7303 -41.8432 main 2123 2024 P_____________ AL101980 29.7303 -41.8432 TS 62 990 0 18 321
1980249N18336 1980 72 NA NA EARL 1980-09-08 06:00:00 TS 30.4000 -42.5000 65 988 hurdat_atl main 2024 1923 O_____________ hurdat_atl AL101980 30.4000 -42.5000 HU 65 988 1 18 325
1980249N18336 1980 72 NA NA EARL 1980-09-08 09:00:00 TS 31.2073 -43.0525 main 1919 1822 P_____________ AL101980 31.2073 -43.0525 HU 65 986 1 18 332
1980249N18336 1980 72 NA NA EARL 1980-09-08 12:00:00 TS 32.0000 -43.5000 65 985 hurdat_atl main 1822 1749 O_____________ hurdat_atl AL101980 32.0000 -43.5000 HU 65 985 1 16 335
1980249N18336 1980 72 NA NA EARL 1980-09-08 15:00:00 TS 32.6648 -43.8607 main 1735 1667 P_____________ AL101980 32.6648 -43.8607 HU 65 985 1 14 339
1980249N18336 1980 72 NA NA EARL 1980-09-08 18:00:00 TS 33.3000 -44.1000 65 986 hurdat_atl main 1667 1598 O_____________ hurdat_atl AL101980 33.3000 -44.1000 HU 65 986 1 14 345
1980249N18336 1980 72 NA NA EARL 1980-09-08 21:00:00 TS 33.9773 -44.2819 main 1588 1518 P_____________ AL101980 33.9773 -44.2819 HU 65 987 1 14 353
1980249N18336 1980 72 NA NA EARL 1980-09-09 00:00:00 TS 34.7000 -44.3000 65 988 hurdat_atl main 1518 1457 O_____________ hurdat_atl AL101980 34.7000 -44.3000 HU 65 988 1 15 5
1980249N18336 1980 72 NA NA EARL 1980-09-09 03:00:00 TS 35.4775 -44.1180 main 1448 1384 P_____________ AL101980 35.4775 -44.1180 HU 65 989 1 17 14
1980249N18336 1980 72 NA NA EARL 1980-09-09 06:00:00 TS 36.3000 -43.8000 65 990 hurdat_atl main 1384 1328 O_____________ hurdat_atl AL101980 36.3000 -43.8000 HU 65 990 1 17 16
1980249N18336 1980 72 NA NA EARL 1980-09-09 09:00:00 TS 37.0818 -43.5282 main 1323 1266 P_____________ AL101980 37.0818 -43.5282 HU 65 990 1 18 18
1980249N18336 1980 72 NA NA EARL 1980-09-09 12:00:00 TS 38.0000 -43.1000 65 991 hurdat_atl main 1262 1202 O_____________ hurdat_atl AL101980 38.0000 -43.1000 HU 65 991 1 23 22
1980249N18336 1980 72 NA NA EARL 1980-09-09 15:00:00 TS 39.1891 -42.4328 main 1200 1156 P_____________ AL101980 39.1891 -42.4328 HU 65 991 1 28 26
1980249N18336 1980 72 NA NA EARL 1980-09-09 18:00:00 TS 40.5000 -41.5000 65 992 hurdat_atl main 1155 1139 O_____________ hurdat_atl AL101980 40.5000 -41.5000 HU 65 992 1 30 31
1980249N18336 1980 72 NA NA EARL 1980-09-09 21:00:00 TS 41.7719 -40.3531 main 1141 1141 P_____________ AL101980 41.7719 -40.3531 HU 65 993 1 31 37
1980249N18336 1980 72 NA NA EARL 1980-09-10 00:00:00 TS 43.0000 -39.0000 65 994 hurdat_atl main 1170 1170 O_____________ hurdat_atl AL101980 43.0000 -39.0000 HU 65 994 1 31 41
1980249N18336 1980 72 NA NA EARL 1980-09-10 03:00:00 TS 44.1130 -37.5671 main 1215 1215 P_____________ AL101980 44.1130 -37.5671 HU 65 994 1 31 44
1980249N18336 1980 72 NA NA EARL 1980-09-10 06:00:00 TS 45.2000 -36.0000 65 995 hurdat_atl main 1291 1291 O_____________ hurdat_atl AL101980 45.2000 -36.0000 HU 65 995 1 32 45
1980249N18336 1980 72 NA NA EARL 1980-09-10 09:00:00 TS 46.3623 -34.3204 main 1385 1385 P_____________ AL101980 46.3623 -34.3204 HU 60 0 33 46
1980249N18336 1980 72 NA NA EARL 1980-09-10 12:00:00 TS 47.5000 -32.5000 55 hurdat_atl main 1499 1477 O_____________ hurdat_atl AL101980 47.5000 -32.5000 TS 55 0 33 49
1980249N18336 1980 72 NA NA EARL 1980-09-10 15:00:00 TS 48.5169 -30.5994 main 1470 1298 P_____________ AL101980 48.5169 -30.5994 TS 55 0 33 53
1980249N18336 1980 72 NA NA EARL 1980-09-10 18:00:00 ET 49.5000 -28.5000 55 hurdat_atl main 1287 1107 O_____________ hurdat_atl AL101980 49.5000 -28.5000 EX 55 -4 35 56
1980249N18336 1980 72 NA NA EARL 1980-09-10 21:00:00 ET 50.5058 -26.1138 main 1091 899 P_____________ AL101980 50.5058 -26.1138 EX 55 -4 37 58
1980249N18336 1980 72 NA NA EARL 1980-09-11 00:00:00 ET 51.5000 -23.5000 55 hurdat_atl main 890 O_____________ hurdat_atl AL101980 51.5000 -23.5000 EX 55 -4 38 59

IBTrACS Databaseについて

本データベースは、米国NOAAが公開する1842年以降の世界の熱帯低気圧のベストトラックデータアーカイブInternational Best Track Archive for Climate Stewardship (IBTrACS)を、ウェブで閲覧しやすい形式に変換したものです。

最終更新日:2021-12-01